Time;durP1;ratioP1;P1;durP2;ratioP2;P2;SDS_P1;SDS_P2;PMS_P1;PMS_P2;Temp;Humidity;BMP_temperature;BMP_pressure;BME280_temperature;BME280_humidity;BME280_pressure;Samples;Min_cycle;Max_cycle;Signal;HPM_P1;HPM_P2
2022/05/14 00:01:52;;;;;;;0.10;0.10;;;;;;;;;;6209290;23;20235;-75
2022/05/14 00:04:18;;;;;;;0.00;0.00;;;;;;;;;;6225179;23;20173;-76
2022/05/14 00:06:45;;;;;;;0.10;0.10;;;;;;;;;;6209090;23;20213;-75
2022/05/14 00:09:11;;;;;;;0.10;0.10;;;;;;;;;;6225184;23;20393;-75
2022/05/14 00:14:23;;;;;;;0.00;0.00;;;;;;;;;;6225249;23;20245;-75
2022/05/14 00:16:50;;;;;;;0.00;0.00;;;;;;;;;;6209097;23;20216;-75
2022/05/14 00:19:16;;;;;;;0.10;0.10;;;;;;;;;;6224906;23;20181;-75
2022/05/14 00:21:43;;;;;;;0.10;0.10;;;;;;;;;;6209041;23;20390;-75
2022/05/14 00:24:09;;;;;;;0.00;0.00;;;;;;;;;;6224574;23;20176;-75
2022/05/14 00:26:36;;;;;;;0.00;0.00;;;;;;;;;;6209152;23;20221;-75
2022/05/14 00:29:04;;;;;;;0.00;0.00;;;;;;;;;;6224893;23;20343;-75
2022/05/14 00:31:30;;;;;;;0.10;0.10;;;;;;;;;;6208961;23;20438;-76
2022/05/14 00:33:57;;;;;;;0.10;0.10;;;;;;;;;;6224941;23;20188;-75
2022/05/14 00:36:24;;;;;;;0.10;0.10;;;;;;;;;;6209490;23;20215;-75
2022/05/14 00:38:51;;;;;;;0.10;0.10;;;;;;;;;;6224856;23;20186;-74
2022/05/14 00:41:17;;;;;;;0.10;0.10;;;;;;;;;;6209147;23;20228;-75
2022/05/14 00:43:48;;;;;;;0.10;0.10;;;;;;;;;;6224701;23;20413;-76
2022/05/14 00:46:19;;;;;;;0.07;0.07;;;;;;;;;;6209449;23;20275;-75
2022/05/14 00:48:46;;;;;;;0.00;0.00;;;;;;;;;;6224425;23;20205;-74
2022/05/14 00:51:14;;;;;;;0.00;0.00;;;;;;;;;;6208954;23;20534;-74
2022/05/14 00:53:42;;;;;;;0.10;0.10;;;;;;;;;;6224183;23;20196;-76
2022/05/14 00:56:09;;;;;;;0.10;0.10;;;;;;;;;;6209117;23;20213;-76
2022/05/14 00:58:39;;;;;;;0.10;0.10;;;;;;;;;;6224145;23;20190;-76
2022/05/14 01:01:08;;;;;;;0.10;0.10;;;;;;;;;;6209633;23;20582;-75
2022/05/14 01:03:36;;;;;;;0.00;0.00;;;;;;;;;;6223928;23;20178;-75
2022/05/14 01:06:04;;;;;;;0.10;0.10;;;;;;;;;;6209334;23;20382;-74
2022/05/14 01:08:31;;;;;;;0.10;0.10;;;;;;;;;;6198178;23;20180;-74
2022/05/14 01:10:58;;;;;;;0.10;0.10;;;;;;;;;;6209299;23;20270;-75
2022/05/14 01:13:24;;;;;;;0.10;0.10;;;;;;;;;;6223755;23;20378;-74
2022/05/14 01:15:51;;;;;;;0.10;0.10;;;;;;;;;;6209406;23;20256;-75
2022/05/14 01:18:19;;;;;;;0.10;0.10;;;;;;;;;;6223602;23;20185;-75
2022/05/14 01:20:51;;;;;;;0.00;0.00;;;;;;;;;;6183046;23;20234;-75
2022/05/14 01:23:21;;;;;;;0.10;0.10;;;;;;;;;;6223704;23;20198;-75
2022/05/14 01:28:36;;;;;;;0.10;0.10;;;;;;;;;;6224090;23;20217;-75
2022/05/14 01:31:03;;;;;;;0.10;0.10;;;;;;;;;;6208819;23;20219;-75
2022/05/14 01:33:29;;;;;;;0.03;0.03;;;;;;;;;;6224032;23;20201;-76
2022/05/14 01:35:56;;;;;;;0.10;0.10;;;;;;;;;;6209322;23;20213;-75
2022/05/14 01:38:24;;;;;;;0.10;0.10;;;;;;;;;;6223745;23;20180;-76
2022/05/14 01:40:50;;;;;;;0.00;0.00;;;;;;;;;;6209203;23;20213;-75
2022/05/14 01:43:17;;;;;;;0.03;0.03;;;;;;;;;;6223692;23;20184;-75
2022/05/14 01:45:45;;;;;;;0.00;0.00;;;;;;;;;;6209242;23;20409;-74
2022/05/14 01:48:11;;;;;;;0.03;0.03;;;;;;;;;;6223637;23;20180;-75
2022/05/14 01:50:38;;;;;;;0.00;0.00;;;;;;;;;;6209250;23;20279;-76
2022/05/14 01:53:04;;;;;;;0.10;0.10;;;;;;;;;;6223249;23;20199;-75
2022/05/14 01:55:30;;;;;;;0.10;0.10;;;;;;;;;;6209323;23;20214;-75
2022/05/14 01:57:56;;;;;;;0.00;0.00;;;;;;;;;;6223501;23;20184;-75
2022/05/14 02:00:23;;;;;;;0.10;0.10;;;;;;;;;;6209341;23;20181;-75
2022/05/14 02:02:51;;;;;;;0.00;0.00;;;;;;;;;;6223567;23;20208;-75
2022/05/14 02:05:18;;;;;;;0.00;0.00;;;;;;;;;;6210937;23;20197;-75
2022/05/14 02:07:44;;;;;;;0.10;0.10;;;;;;;;;;6225274;23;20228;-74
2022/05/14 02:10:11;;;;;;;0.10;0.10;;;;;;;;;;6211658;23;20180;-76
2022/05/14 02:12:40;;;;;;;0.10;0.10;;;;;;;;;;6224540;23;20207;-75
2022/05/14 02:15:06;;;;;;;0.10;0.10;;;;;;;;;;6226628;23;20181;-75
2022/05/14 02:17:33;;;;;;;0.10;0.10;;;;;;;;;;6184872;23;20193;-70
2022/05/14 02:20:01;;;;;;;0.00;0.00;;;;;;;;;;6226444;23;20231;-69
2022/05/14 02:22:27;;;;;;;0.10;0.10;;;;;;;;;;6210066;23;20218;-70
2022/05/14 02:24:54;;;;;;;0.10;0.10;;;;;;;;;;6226394;23;20181;-70
2022/05/14 02:27:20;;;;;;;0.10;0.10;;;;;;;;;;6209998;23;20565;-70
2022/05/14 02:29:53;;;;;;;0.10;0.10;;;;;;;;;;6226342;23;20189;-69
2022/05/14 02:32:21;;;;;;;0.10;0.10;;;;;;;;;;6209934;23;20254;-69
2022/05/14 02:34:47;;;;;;;0.10;0.10;;;;;;;;;;6225926;23;20428;-70
2022/05/14 02:37:16;;;;;;;0.00;0.00;;;;;;;;;;6209679;23;20589;-70
2022/05/14 02:39:42;;;;;;;0.10;0.10;;;;;;;;;;6226167;23;20231;-70
2022/05/14 02:42:08;;;;;;;0.10;0.10;;;;;;;;;;6209760;23;20230;-70
2022/05/14 02:44:35;;;;;;;0.10;0.10;;;;;;;;;;6226082;23;20182;-70
2022/05/14 02:47:01;;;;;;;0.07;0.07;;;;;;;;;;6209582;23;20320;-70
2022/05/14 02:49:28;;;;;;;0.10;0.10;;;;;;;;;;6226213;23;20252;-70
2022/05/14 02:51:54;;;;;;;0.10;0.10;;;;;;;;;;6209938;23;20226;-70
2022/05/14 02:54:21;;;;;;;0.10;0.10;;;;;;;;;;6225780;23;20274;-69
2022/05/14 02:56:48;;;;;;;0.10;0.10;;;;;;;;;;6210006;23;20524;-70
2022/05/14 02:59:15;;;;;;;0.00;0.00;;;;;;;;;;6225550;23;20182;-73
2022/05/14 03:01:48;;;;;;;0.10;0.10;;;;;;;;;;6209741;23;20212;-69
2022/05/14 03:04:14;;;;;;;0.00;0.00;;;;;;;;;;6225589;23;20272;-70
2022/05/14 03:06:41;;;;;;;0.10;0.10;;;;;;;;;;6209919;23;20214;-70
2022/05/14 03:09:07;;;;;;;0.10;0.10;;;;;;;;;;6225743;23;20165;-68
2022/05/14 03:11:35;;;;;;;0.10;0.10;;;;;;;;;;6209867;23;20220;-69
2022/05/14 03:14:01;;;;;;;0.10;0.10;;;;;;;;;;6225336;23;20207;-70
2022/05/14 03:16:28;;;;;;;0.00;0.00;;;;;;;;;;6210004;23;20272;-70
2022/05/14 03:18:55;;;;;;;0.10;0.10;;;;;;;;;;6225410;23;20495;-69
2022/05/14 03:21:21;;;;;;;0.00;0.00;;;;;;;;;;6209822;23;20222;-70
2022/05/14 03:23:47;;;;;;;0.10;0.10;;;;;;;;;;6225358;23;20188;-70
2022/05/14 03:26:13;;;;;;;0.10;0.10;;;;;;;;;;6209719;23;20213;-68
2022/05/14 03:28:41;;;;;;;0.10;0.10;;;;;;;;;;6225416;23;20188;-69
2022/05/14 03:31:07;;;;;;;0.10;0.10;;;;;;;;;;6209835;23;20221;-73
2022/05/14 03:33:33;;;;;;;0.10;0.10;;;;;;;;;;6225013;23;20248;-72
2022/05/14 03:36:00;;;;;;;0.07;0.07;;;;;;;;;;6209887;23;20581;-72
2022/05/14 03:38:27;;;;;;;0.10;0.10;;;;;;;;;;6224398;23;20411;-73
2022/05/14 03:40:53;;;;;;;0.10;0.10;;;;;;;;;;6210172;23;20542;-74
2022/05/14 03:43:19;;;;;;;0.10;0.10;;;;;;;;;;6224200;23;20175;-73
2022/05/14 03:45:47;;;;;;;0.10;0.10;;;;;;;;;;6210198;23;20457;-73
2022/05/14 03:48:13;;;;;;;0.10;0.10;;;;;;;;;;6224584;23;20247;-72
2022/05/14 03:50:39;;;;;;;0.10;0.10;;;;;;;;;;6209920;23;20251;-72
2022/05/14 03:53:05;;;;;;;0.10;0.10;;;;;;;;;;6224468;23;20418;-72
2022/05/14 03:55:32;;;;;;;0.10;0.10;;;;;;;;;;6209685;23;20222;-72
2022/05/14 03:57:58;;;;;;;0.10;0.10;;;;;;;;;;6224213;23;20185;-73
2022/05/14 04:00:24;;;;;;;0.07;0.07;;;;;;;;;;6210338;23;20236;-72
2022/05/14 04:02:52;;;;;;;0.00;0.00;;;;;;;;;;6224075;23;20483;-72
2022/05/14 04:05:18;;;;;;;0.10;0.10;;;;;;;;;;6209757;23;20184;-74
2022/05/14 04:07:45;;;;;;;0.10;0.10;;;;;;;;;;6224219;23;20190;-75
2022/05/14 04:10:12;;;;;;;0.10;0.10;;;;;;;;;;6210277;23;20187;-73
2022/05/14 04:12:38;;;;;;;0.10;0.10;;;;;;;;;;6223588;23;20206;-73
2022/05/14 04:15:05;;;;;;;0.07;0.07;;;;;;;;;;6218336;23;20194;-73
2022/05/14 04:17:31;;;;;;;0.10;0.10;;;;;;;;;;6223365;23;20220;-74
2022/05/14 04:19:59;;;;;;;0.10;0.10;;;;;;;;;;6225074;23;20484;-73
2022/05/14 04:22:25;;;;;;;0.00;0.00;;;;;;;;;;6209046;23;20216;-73
2022/05/14 04:24:52;;;;;;;0.10;0.10;;;;;;;;;;6225314;23;20470;-72
2022/05/14 04:27:18;;;;;;;0.00;0.00;;;;;;;;;;6208012;23;20528;-70
2022/05/14 04:29:44;;;;;;;0.10;0.10;;;;;;;;;;6225044;23;20402;-70
2022/05/14 04:32:10;;;;;;;0.10;0.10;;;;;;;;;;6208535;23;20240;-70
2022/05/14 04:34:36;;;;;;;0.07;0.07;;;;;;;;;;6225078;23;20200;-70
2022/05/14 04:37:04;;;;;;;0.00;0.00;;;;;;;;;;6208813;23;20361;-70
2022/05/14 04:39:32;;;;;;;0.07;0.07;;;;;;;;;;6225154;23;20412;-71
2022/05/14 04:42:00;;;;;;;0.10;0.10;;;;;;;;;;6208682;23;20257;-71
2022/05/14 04:44:26;;;;;;;0.00;0.00;;;;;;;;;;6225119;23;20491;-71
2022/05/14 04:46:53;;;;;;;0.10;0.10;;;;;;;;;;6208629;23;20243;-71
2022/05/14 04:49:19;;;;;;;0.10;0.10;;;;;;;;;;6224828;23;20371;-69
2022/05/14 04:51:45;;;;;;;0.00;0.00;;;;;;;;;;6208766;23;20259;-71
2022/05/14 04:54:13;;;;;;;0.10;0.10;;;;;;;;;;6224655;23;20200;-70
2022/05/14 04:56:39;;;;;;;0.00;0.00;;;;;;;;;;6209035;23;20220;-70
2022/05/14 04:59:05;;;;;;;0.10;0.10;;;;;;;;;;6224739;23;20231;-70
2022/05/14 05:01:32;;;;;;;0.10;0.10;;;;;;;;;;6209055;23;20217;-70
2022/05/14 05:03:57;;;;;;;0.00;0.00;;;;;;;;;;6224684;23;20177;-71
2022/05/14 05:06:24;;;;;;;0.10;0.10;;;;;;;;;;6208951;23;20278;-70
2022/05/14 05:08:51;;;;;;;0.10;0.10;;;;;;;;;;6224475;23;20184;-71
2022/05/14 05:11:20;;;;;;;0.10;0.10;;;;;;;;;;6208754;23;20221;-71
2022/05/14 05:13:46;;;;;;;0.10;0.10;;;;;;;;;;6224299;23;20192;-70
2022/05/14 05:16:12;;;;;;;0.10;0.10;;;;;;;;;;6209121;23;20549;-70
2022/05/14 05:18:39;;;;;;;0.10;0.10;;;;;;;;;;6224272;23;20240;-71
2022/05/14 05:21:06;;;;;;;0.10;0.10;;;;;;;;;;6208968;23;20255;-71
2022/05/14 05:23:32;;;;;;;0.10;0.10;;;;;;;;;;6224349;23;20245;-70
2022/05/14 05:25:59;;;;;;;0.10;0.10;;;;;;;;;;6209261;23;20218;-70
2022/05/14 05:28:27;;;;;;;0.10;0.10;;;;;;;;;;6224248;23;20182;-71
2022/05/14 05:30:53;;;;;;;0.10;0.10;;;;;;;;;;6209352;23;20212;-71
2022/05/14 05:33:21;;;;;;;0.00;0.00;;;;;;;;;;6223513;23;20423;-71
2022/05/14 05:35:47;;;;;;;0.10;0.10;;;;;;;;;;6209440;23;20274;-71
2022/05/14 05:38:14;;;;;;;0.10;0.10;;;;;;;;;;6225459;23;20464;-70
2022/05/14 05:40:40;;;;;;;0.00;0.00;;;;;;;;;;6211529;23;20235;-70
2022/05/14 05:43:08;;;;;;;0.00;0.00;;;;;;;;;;6225663;23;20547;-70
2022/05/14 05:45:36;;;;;;;0.10;0.10;;;;;;;;;;6211724;23;20220;-70
2022/05/14 05:48:03;;;;;;;0.10;0.10;;;;;;;;;;6226026;23;20169;-70
2022/05/14 05:50:29;;;;;;;0.00;0.00;;;;;;;;;;6211517;23;20276;-70
2022/05/14 05:52:55;;;;;;;0.10;0.10;;;;;;;;;;6225619;23;20350;-69
2022/05/14 05:58:06;;;;;;;0.00;0.00;;;;;;;;;;6225672;23;20313;-70
2022/05/14 06:00:32;;;;;;;0.10;0.10;;;;;;;;;;6210512;23;20537;-70
2022/05/14 06:03:00;;;;;;;0.10;0.10;;;;;;;;;;6225651;23;20181;-70
2022/05/14 06:05:27;;;;;;;0.10;0.10;;;;;;;;;;6211644;23;20216;-70
2022/05/14 06:07:53;;;;;;;0.00;0.00;;;;;;;;;;6225241;23;20224;-64
2022/05/14 06:10:21;;;;;;;0.10;0.10;;;;;;;;;;6211503;23;20246;-65
2022/05/14 06:12:47;;;;;;;0.10;0.10;;;;;;;;;;6224762;23;20193;-64
2022/05/14 06:15:15;;;;;;;0.10;0.10;;;;;;;;;;6211418;23;20395;-64
2022/05/14 06:17:41;;;;;;;0.10;0.10;;;;;;;;;;6224838;23;20180;-64
2022/05/14 06:20:11;;;;;;;1.07;1.07;;;;;;;;;;6211615;23;20205;-65
2022/05/14 06:22:37;;;;;;;0.00;0.00;;;;;;;;;;6225054;23;20245;-65
2022/05/14 06:25:04;;;;;;;0.10;0.10;;;;;;;;;;6226439;23;20180;-65
2022/05/14 06:27:30;;;;;;;0.10;0.10;;;;;;;;;;6210008;23;20221;-65
2022/05/14 06:29:57;;;;;;;0.07;0.07;;;;;;;;;;6225926;23;20437;-64
2022/05/14 06:32:23;;;;;;;0.10;0.10;;;;;;;;;;6209730;23;20249;-62
2022/05/14 06:34:49;;;;;;;0.10;0.10;;;;;;;;;;6226129;23;20535;-64
2022/05/14 06:37:17;;;;;;;0.00;0.00;;;;;;;;;;6209719;23;20522;-65
2022/05/14 06:39:44;;;;;;;0.10;0.10;;;;;;;;;;6226268;23;20194;-64
2022/05/14 06:42:11;;;;;;;0.00;0.00;;;;;;;;;;6209826;23;20264;-64
2022/05/14 06:44:37;;;;;;;0.00;0.00;;;;;;;;;;6226186;23;20271;-64
2022/05/14 06:47:04;;;;;;;0.03;0.03;;;;;;;;;;6209772;23;20221;-64
2022/05/14 06:49:30;;;;;;;0.03;0.03;;;;;;;;;;6225312;23;20232;-64
2022/05/14 06:51:59;;;;;;;0.10;0.10;;;;;;;;;;6209770;23;20534;-64
2022/05/14 06:54:27;;;;;;;0.10;0.10;;;;;;;;;;6225961;23;20204;-64
2022/05/14 06:56:53;;;;;;;0.10;0.10;;;;;;;;;;6209730;23;20445;-67
2022/05/14 06:59:19;;;;;;;0.10;0.10;;;;;;;;;;6225955;23;20229;-65
2022/05/14 07:01:47;;;;;;;0.10;0.10;;;;;;;;;;6209676;23;20439;-64
2022/05/14 07:07:17;;;;;;;0.00;0.00;;;;;;;;;;6149146;23;20271;-65
2022/05/14 07:09:44;;;;;;;0.10;0.10;;;;;;;;;;6163612;23;20365;-65
2022/05/14 07:12:12;;;;;;;0.10;0.10;;;;;;;;;;6176026;23;20277;-69
2022/05/14 07:14:40;;;;;;;0.03;0.03;;;;;;;;;;6225837;23;20194;-67
2022/05/14 07:17:06;;;;;;;0.10;0.10;;;;;;;;;;6209444;23;20222;-68
2022/05/14 07:19:33;;;;;;;0.00;0.00;;;;;;;;;;6225330;23;20178;-69
2022/05/14 07:22:00;;;;;;;0.10;0.10;;;;;;;;;;6209259;23;20429;-69
2022/05/14 07:24:26;;;;;;;0.10;0.10;;;;;;;;;;6225650;23;20186;-68
2022/05/14 07:26:56;;;;;;;0.03;0.03;;;;;;;;;;6209169;23;20214;-66
2022/05/14 07:29:23;;;;;;;0.00;0.00;;;;;;;;;;6225662;23;20185;-67
2022/05/14 07:31:49;;;;;;;0.07;0.07;;;;;;;;;;6209151;23;20213;-67
2022/05/14 07:34:16;;;;;;;0.00;0.00;;;;;;;;;;6225216;23;20205;-67
2022/05/14 07:36:44;;;;;;;0.10;0.10;;;;;;;;;;6209612;23;20291;-68
2022/05/14 07:39:11;;;;;;;0.10;0.10;;;;;;;;;;6225392;23;20216;-66
2022/05/14 07:41:40;;;;;;;0.10;0.10;;;;;;;;;;6209309;23;20407;-68
2022/05/14 07:44:08;;;;;;;0.10;0.10;;;;;;;;;;6225271;23;20510;-67
2022/05/14 07:46:35;;;;;;;0.00;0.00;;;;;;;;;;6209219;23;20214;-65
2022/05/14 07:49:04;;;;;;;0.10;0.10;;;;;;;;;;6225067;23;20252;-64
2022/05/14 07:51:30;;;;;;;0.10;0.10;;;;;;;;;;6209467;23;20214;-66
2022/05/14 07:53:56;;;;;;;0.00;0.00;;;;;;;;;;6224898;23;20555;-66
2022/05/14 07:56:23;;;;;;;0.10;0.10;;;;;;;;;;6209447;23;20268;-65
2022/05/14 07:58:49;;;;;;;0.00;0.00;;;;;;;;;;6224970;23;20182;-65
2022/05/14 08:01:17;;;;;;;0.00;0.00;;;;;;;;;;6208911;23;20213;-64
2022/05/14 08:03:43;;;;;;;0.00;0.00;;;;;;;;;;6224835;23;20273;-65
2022/05/14 08:06:11;;;;;;;0.07;0.07;;;;;;;;;;6209155;23;20272;-65
2022/05/14 08:08:37;;;;;;;0.10;0.10;;;;;;;;;;6224668;23;20363;-64
2022/05/14 08:11:04;;;;;;;0.10;0.10;;;;;;;;;;6209407;23;20593;-66
2022/05/14 08:13:34;;;;;;;0.10;0.10;;;;;;;;;;6224362;23;20245;-66
2022/05/14 08:16:00;;;;;;;0.10;0.10;;;;;;;;;;6209508;23;20537;-65
2022/05/14 08:18:28;;;;;;;0.00;0.00;;;;;;;;;;6224382;23;20241;-65
2022/05/14 08:20:54;;;;;;;0.00;0.00;;;;;;;;;;6209258;23;20215;-66
2022/05/14 08:26:06;;;;;;;0.00;0.00;;;;;;;;;;6209219;23;20221;-65
2022/05/14 08:28:33;;;;;;;0.10;0.10;;;;;;;;;;6224009;23;20193;-65
2022/05/14 08:31:00;;;;;;;0.00;0.00;;;;;;;;;;6209306;23;20388;-66
2022/05/14 08:33:28;;;;;;;0.03;0.03;;;;;;;;;;6224253;23;20195;-64
2022/05/14 08:35:54;;;;;;;0.03;0.03;;;;;;;;;;6209294;23;20215;-66
2022/05/14 08:38:21;;;;;;;0.00;0.00;;;;;;;;;;6224154;23;20234;-64
2022/05/14 08:40:54;;;;;;;0.00;0.00;;;;;;;;;;6209286;23;20274;-65
2022/05/14 08:43:22;;;;;;;0.00;0.00;;;;;;;;;;6224267;23;20171;-65
2022/05/14 08:45:49;;;;;;;0.10;0.10;;;;;;;;;;6209048;23;20462;-65
2022/05/14 08:48:16;;;;;;;0.10;0.10;;;;;;;;;;6224150;23;20398;-67
2022/05/14 08:50:45;;;;;;;0.00;0.00;;;;;;;;;;6209411;23;20300;-64
2022/05/14 08:53:12;;;;;;;0.00;0.00;;;;;;;;;;6223987;23;20204;-64
2022/05/14 08:55:41;;;;;;;0.10;0.10;;;;;;;;;;6209162;23;20238;-64
2022/05/14 08:58:11;;;;;;;0.10;0.10;;;;;;;;;;6223823;23;20190;-65
2022/05/14 09:00:37;;;;;;;0.10;0.10;;;;;;;;;;6209262;23;20379;-66
2022/05/14 09:03:04;;;;;;;0.00;0.00;;;;;;;;;;6223771;23;20186;-65
2022/05/14 09:05:32;;;;;;;0.00;0.00;;;;;;;;;;6209366;23;20218;-64
2022/05/14 09:08:01;;;;;;;0.00;0.00;;;;;;;;;;6223834;23;20191;-65
2022/05/14 09:10:28;;;;;;;0.00;0.00;;;;;;;;;;6209661;23;20216;-65
2022/05/14 09:12:57;;;;;;;0.00;0.00;;;;;;;;;;6223038;23;20258;-68
2022/05/14 09:15:24;;;;;;;0.10;0.10;;;;;;;;;;6209029;23;20199;-65
2022/05/14 09:18:02;;;;;;;2.00;1.85;;;;;;;;;;6223607;23;20184;-64
2022/05/14 09:20:29;;;;;;;0.00;0.00;;;;;;;;;;6209390;23;20218;-65
2022/05/14 09:22:56;;;;;;;0.00;0.00;;;;;;;;;;6223842;23;20467;-64
2022/05/14 09:25:26;;;;;;;0.00;0.00;;;;;;;;;;6209704;23;20183;-65
2022/05/14 09:27:55;;;;;;;0.00;0.00;;;;;;;;;;6223618;23;20247;-66
2022/05/14 09:30:26;;;;;;;0.00;0.00;;;;;;;;;;6209281;23;20215;-65
2022/05/14 09:32:52;;;;;;;0.10;0.10;;;;;;;;;;6223465;23;20587;-65
2022/05/14 09:35:19;;;;;;;0.03;0.03;;;;;;;;;;6209197;23;20515;-66
2022/05/14 09:37:46;;;;;;;0.10;0.10;;;;;;;;;;6223432;23;20523;-65
2022/05/14 09:40:15;;;;;;;0.00;0.00;;;;;;;;;;6209528;23;20364;-65
2022/05/14 09:42:44;;;;;;;0.10;0.10;;;;;;;;;;6223263;23;20180;-64
2022/05/14 09:45:20;;;;;;;0.00;0.00;;;;;;;;;;6209610;23;20307;-66
2022/05/14 09:47:47;;;;;;;0.00;0.00;;;;;;;;;;6223380;23;20184;-65
2022/05/14 09:50:17;;;;;;;0.10;0.10;;;;;;;;;;6209434;23;20181;-64
2022/05/14 09:52:54;;;;;;;0.10;0.10;;;;;;;;;;6223231;23;20192;-66
2022/05/14 09:55:21;;;;;;;0.00;0.00;;;;;;;;;;6209512;23;20189;-64
2022/05/14 09:57:50;;;;;;;0.00;0.00;;;;;;;;;;6223269;23;20188;-64
2022/05/14 10:00:19;;;;;;;0.08;0.08;;;;;;;;;;6209488;23;20203;-65
2022/05/14 10:02:52;;;;;;;0.10;0.10;;;;;;;;;;6223009;23;20185;-65
2022/05/14 10:05:26;;;;;;;0.03;0.03;;;;;;;;;;6209337;23;20219;-65
2022/05/14 10:07:54;;;;;;;0.00;0.00;;;;;;;;;;6223364;23;20180;-66
2022/05/14 10:10:27;;;;;;;0.10;0.10;;;;;;;;;;6209266;23;20192;-66
2022/05/14 10:12:58;;;;;;;0.00;0.00;;;;;;;;;;6222950;23;20504;-65
2022/05/14 10:15:31;;;;;;;0.10;0.10;;;;;;;;;;6209126;23;20522;-68
2022/05/14 10:18:00;;;;;;;0.10;0.10;;;;;;;;;;6223326;23;20207;-71
2022/05/14 10:20:34;;;;;;;0.00;0.00;;;;;;;;;;6209281;23;20287;-65
2022/05/14 10:28:50;;;;;;;0.00;0.00;;;;;;;;;;6225619;23;20394;-65
2022/05/14 10:31:23;;;;;;;0.00;0.00;;;;;;;;;;6210318;23;20219;-65
2022/05/14 10:33:52;;;;;;;0.10;0.10;;;;;;;;;;6226074;23;20208;-64
2022/05/14 10:36:23;;;;;;;0.00;0.00;;;;;;;;;;6210498;23;20454;-65
2022/05/14 10:38:50;;;;;;;0.00;0.00;;;;;;;;;;6225465;23;20183;-63
2022/05/14 10:41:24;;;;;;;0.00;0.00;;;;;;;;;;6210423;23;20268;-64
2022/05/14 10:43:55;;;;;;;0.00;0.00;;;;;;;;;;6225782;23;20211;-65
2022/05/14 10:46:22;;;;;;;0.00;0.00;;;;;;;;;;6210013;23;20247;-64
2022/05/14 10:48:51;;;;;;;0.00;0.00;;;;;;;;;;6225278;23;20247;-74
2022/05/14 10:51:20;;;;;;;0.00;0.00;;;;;;;;;;6209961;23;20213;-65
2022/05/14 10:53:46;;;;;;;1.75;1.65;;;;;;;;;;6225598;23;20209;-66
2022/05/14 10:56:14;;;;;;;0.00;0.00;;;;;;;;;;6210270;23;20212;-65
2022/05/14 10:58:45;;;;;;;0.00;0.00;;;;;;;;;;6225728;23;20475;-65
2022/05/14 11:01:25;;;;;;;0.00;0.00;;;;;;;;;;6210108;23;20286;-65
2022/05/14 11:03:54;;;;;;;0.10;0.10;;;;;;;;;;6225438;23;20193;-66
2022/05/14 11:06:27;;;;;;;0.08;0.08;;;;;;;;;;6209988;23;20586;-66
2022/05/14 11:08:54;;;;;;;0.00;0.00;;;;;;;;;;6225768;23;20191;-65
2022/05/14 11:11:21;;;;;;;0.10;0.10;;;;;;;;;;6209938;23;20225;-65
2022/05/14 11:13:56;;;;;;;0.00;0.00;;;;;;;;;;6225354;23;20176;-65
2022/05/14 11:16:34;;;;;;;0.10;0.10;;;;;;;;;;6209672;23;20533;-65
2022/05/14 11:19:04;;;;;;;0.08;0.08;;;;;;;;;;6225755;23;20229;-66
2022/05/14 11:21:34;;;;;;;0.00;0.00;;;;;;;;;;6209911;23;20212;-65
2022/05/14 11:24:02;;;;;;;0.00;0.00;;;;;;;;;;6225608;23;20189;-65
2022/05/14 11:26:29;;;;;;;0.00;0.00;;;;;;;;;;6209660;23;20221;-66
2022/05/14 11:28:56;;;;;;;0.00;0.00;;;;;;;;;;6225028;23;20182;-67
2022/05/14 11:31:25;;;;;;;0.00;0.00;;;;;;;;;;6209718;23;20213;-64
2022/05/14 11:33:53;;;;;;;0.00;0.00;;;;;;;;;;6225113;23;20228;-65
2022/05/14 11:36:25;;;;;;;0.00;0.00;;;;;;;;;;6209543;23;20413;-66
2022/05/14 11:39:09;;;;;;;0.00;0.00;;;;;;;;;;6225376;23;20190;-65
2022/05/14 11:41:36;;;;;;;0.00;0.00;;;;;;;;;;6209606;23;20212;-66
2022/05/14 11:44:04;;;;;;;0.00;0.00;;;;;;;;;;6225355;23;20213;-66
2022/05/14 11:46:33;;;;;;;0.00;0.00;;;;;;;;;;6209557;23;20235;-67
2022/05/14 11:49:03;;;;;;;0.00;0.00;;;;;;;;;;6225022;23;20224;-65
2022/05/14 11:51:33;;;;;;;0.00;0.00;;;;;;;;;;6209560;23;20244;-65
2022/05/14 11:54:03;;;;;;;0.00;0.00;;;;;;;;;;6224838;23;20244;-65
2022/05/14 11:56:33;;;;;;;0.00;0.00;;;;;;;;;;6209338;23;20316;-70
2022/05/14 11:59:02;;;;;;;0.00;0.00;;;;;;;;;;6225336;23;20384;-65
2022/05/14 12:01:31;;;;;;;0.13;0.13;;;;;;;;;;6209560;23;20212;-65
2022/05/14 12:04:01;;;;;;;0.00;0.00;;;;;;;;;;6225123;23;20194;-65
2022/05/14 12:06:45;;;;;;;0.00;0.00;;;;;;;;;;6209441;23;20221;-66
2022/05/14 12:09:32;;;;;;;0.00;0.00;;;;;;;;;;6225105;23;20368;-64
2022/05/14 12:12:02;;;;;;;0.00;0.00;;;;;;;;;;6198758;23;20239;-65
2022/05/14 12:14:30;;;;;;;0.00;0.00;;;;;;;;;;6225560;23;20196;-65
2022/05/14 12:16:57;;;;;;;0.00;0.00;;;;;;;;;;6208370;23;20264;-65
2022/05/14 12:19:26;;;;;;;0.00;0.00;;;;;;;;;;6224820;23;20218;-65
2022/05/14 12:21:54;;;;;;;0.30;0.30;;;;;;;;;;6208740;23;20214;-65
2022/05/14 12:24:21;;;;;;;0.00;0.00;;;;;;;;;;6225387;23;20182;-64
2022/05/14 12:26:48;;;;;;;0.00;0.00;;;;;;;;;;6208923;23;20218;-65
2022/05/14 12:29:15;;;;;;;0.10;0.10;;;;;;;;;;6225194;23;20181;-65
2022/05/14 12:34:34;;;;;;;0.20;0.20;;;;;;;;;;6225258;23;20219;-65
2022/05/14 12:37:01;;;;;;;1.60;1.48;;;;;;;;;;6208605;23;20213;-65
2022/05/14 12:39:29;;;;;;;0.00;0.00;;;;;;;;;;6225020;23;20500;-65
2022/05/14 12:41:57;;;;;;;0.00;0.00;;;;;;;;;;6208787;23;20395;-65
2022/05/14 12:44:25;;;;;;;0.00;0.00;;;;;;;;;;6224984;23;20227;-65
2022/05/14 12:46:54;;;;;;;0.00;0.00;;;;;;;;;;6208453;23;20255;-65
2022/05/14 12:49:21;;;;;;;0.10;0.10;;;;;;;;;;6224765;23;20475;-64
2022/05/14 12:51:51;;;;;;;0.10;0.10;;;;;;;;;;6208648;23;20210;-65
2022/05/14 12:54:22;;;;;;;0.00;0.00;;;;;;;;;;6224970;23;20209;-66
2022/05/14 12:56:50;;;;;;;0.10;0.10;;;;;;;;;;6208518;23;20407;-65
2022/05/14 12:59:16;;;;;;;0.00;0.00;;;;;;;;;;6224884;23;20429;-66
2022/05/14 13:01:42;;;;;;;0.00;0.00;;;;;;;;;;6208827;23;20219;-65
2022/05/14 13:04:09;;;;;;;0.00;0.00;;;;;;;;;;6224740;23;20224;-65
2022/05/14 13:06:40;;;;;;;0.10;0.10;;;;;;;;;;6208962;23;20281;-67
2022/05/14 13:09:10;;;;;;;0.00;0.00;;;;;;;;;;6224751;23;20196;-65
2022/05/14 13:11:37;;;;;;;0.00;0.00;;;;;;;;;;6208588;23;20395;-66
2022/05/14 13:14:11;;;;;;;0.00;0.00;;;;;;;;;;6224504;23;20206;-65
2022/05/14 13:16:37;;;;;;;0.08;0.08;;;;;;;;;;6208413;23;20239;-66
2022/05/14 13:19:07;;;;;;;0.10;0.10;;;;;;;;;;6224412;23;20246;-65
2022/05/14 13:21:34;;;;;;;0.10;0.10;;;;;;;;;;6208646;23;20237;-65
2022/05/14 13:24:02;;;;;;;0.08;0.08;;;;;;;;;;6224055;23;20191;-64
2022/05/14 13:26:34;;;;;;;0.30;0.30;;;;;;;;;;6208748;23;20208;-65
2022/05/14 13:29:08;;;;;;;0.10;0.10;;;;;;;;;;6224513;23;20355;-64
2022/05/14 13:31:34;;;;;;;0.08;0.08;;;;;;;;;;6208719;23;20643;-65
2022/05/14 13:37:07;;;;;;;0.08;0.08;;;;;;;;;;6224887;23;20184;-65
2022/05/14 13:37:08;;;;;;;0.00;0.00;;;;;;;;;;6208395;23;20459;-65
2022/05/14 13:39:37;;;;;;;0.00;0.00;;;;;;;;;;6225372;23;20516;-65
2022/05/14 13:42:08;;;;;;;0.00;0.00;;;;;;;;;;6208399;23;20257;-65
2022/05/14 13:44:34;;;;;;;0.10;0.10;;;;;;;;;;6224985;23;20270;-66
2022/05/14 13:47:02;;;;;;;0.05;0.05;;;;;;;;;;6208366;23;20217;-65
2022/05/14 13:49:29;;;;;;;0.00;0.00;;;;;;;;;;6224448;23;20390;-65
2022/05/14 13:51:57;;;;;;;0.00;0.00;;;;;;;;;;6208212;23;20213;-66
2022/05/14 13:54:29;;;;;;;0.00;0.00;;;;;;;;;;6224934;23;20181;-64
2022/05/14 13:56:59;;;;;;;0.10;0.10;;;;;;;;;;6208254;23;20245;-65
2022/05/14 13:59:28;;;;;;;0.00;0.00;;;;;;;;;;6226363;23;20239;-65
2022/05/14 14:01:58;;;;;;;0.00;0.00;;;;;;;;;;6210375;23;20265;-64
2022/05/14 14:04:25;;;;;;;0.00;0.00;;;;;;;;;;6226784;23;20370;-66
2022/05/14 14:06:55;;;;;;;0.10;0.10;;;;;;;;;;6210636;23;20213;-65
2022/05/14 14:09:21;;;;;;;0.00;0.00;;;;;;;;;;6226694;23;20181;-65
2022/05/14 14:11:48;;;;;;;0.08;0.08;;;;;;;;;;6210285;23;20283;-65
2022/05/14 14:14:14;;;;;;;0.00;0.00;;;;;;;;;;6226606;23;20182;-64
2022/05/14 14:16:42;;;;;;;0.00;0.00;;;;;;;;;;6210137;23;20547;-65
2022/05/14 14:19:08;;;;;;;0.10;0.10;;;;;;;;;;6226499;23;20174;-66
2022/05/14 14:21:34;;;;;;;0.00;0.00;;;;;;;;;;6210370;23;20239;-66
2022/05/14 14:24:01;;;;;;;0.00;0.00;;;;;;;;;;6226163;23;20188;-69
2022/05/14 14:26:28;;;;;;;0.70;0.70;;;;;;;;;;6210334;23;20255;-65
2022/05/14 14:28:54;;;;;;;0.00;0.00;;;;;;;;;;6225573;23;20182;-65
2022/05/14 14:31:21;;;;;;;0.00;0.00;;;;;;;;;;6210192;23;20450;-66
2022/05/14 14:33:49;;;;;;;0.00;0.00;;;;;;;;;;6225604;23;20177;-65
2022/05/14 14:36:16;;;;;;;0.00;0.00;;;;;;;;;;6210302;23;20346;-65
2022/05/14 14:38:43;;;;;;;0.00;0.00;;;;;;;;;;6225400;23;20489;-66
2022/05/14 14:41:09;;;;;;;0.00;0.00;;;;;;;;;;6210246;23;20260;-65
2022/05/14 14:43:36;;;;;;;0.00;0.00;;;;;;;;;;6225525;23;20175;-65
2022/05/14 14:46:03;;;;;;;0.00;0.00;;;;;;;;;;6210510;23;20211;-65
2022/05/14 14:48:32;;;;;;;0.00;0.00;;;;;;;;;;6225266;23;20227;-65
2022/05/14 14:51:01;;;;;;;0.00;0.00;;;;;;;;;;6210626;23;20216;-65
2022/05/14 14:53:28;;;;;;;0.00;0.00;;;;;;;;;;6224959;23;20182;-65
2022/05/14 14:55:54;;;;;;;0.00;0.00;;;;;;;;;;6210104;23;20214;-65
2022/05/14 14:58:20;;;;;;;0.00;0.00;;;;;;;;;;6225312;23;20182;-65
2022/05/14 15:00:48;;;;;;;0.00;0.00;;;;;;;;;;6210429;23;20435;-65
2022/05/14 15:03:19;;;;;;;0.10;0.10;;;;;;;;;;6224772;23;20183;-65
2022/05/14 15:05:47;;;;;;;0.00;0.00;;;;;;;;;;6210269;23;20260;-65
2022/05/14 15:08:16;;;;;;;0.00;0.00;;;;;;;;;;6224959;23;20407;-66
2022/05/14 15:10:43;;;;;;;0.00;0.00;;;;;;;;;;6210272;23;20259;-65